sensor_id;sensor_type;location;lat;lon;timestamp;P1;durP1;ratioP1;P2;durP2;ratioP2
28245;SDS011;15510;52.512;13.300;2023-10-31T00:02:17;9.57;;;3.40;;
28245;SDS011;15510;52.512;13.300;2023-10-31T00:04:43;5.45;;;2.97;;
28245;SDS011;15510;52.512;13.300;2023-10-31T00:07:09;4.57;;;2.70;;
28245;SDS011;15510;52.512;13.300;2023-10-31T00:09:35;7.35;;;3.40;;
28245;SDS011;15510;52.512;13.300;2023-10-31T00:12:01;4.00;;;3.13;;
28245;SDS011;15510;52.512;13.300;2023-10-31T00:14:30;6.38;;;3.05;;
28245;SDS011;15510;52.512;13.300;2023-10-31T00:16:56;4.15;;;3.20;;
28245;SDS011;15510;52.512;13.300;2023-10-31T00:19:26;6.47;;;3.15;;
28245;SDS011;15510;52.512;13.300;2023-10-31T00:21:52;5.53;;;3.38;;
28245;SDS011;15510;52.512;13.300;2023-10-31T00:24:17;6.00;;;2.85;;
28245;SDS011;15510;52.512;13.300;2023-10-31T00:26:50;9.32;;;3.55;;
28245;SDS011;15510;52.512;13.300;2023-10-31T00:29:18;3.78;;;2.90;;
28245;SDS011;15510;52.512;13.300;2023-10-31T00:31:47;5.28;;;3.53;;
28245;SDS011;15510;52.512;13.300;2023-10-31T00:34:13;6.53;;;3.75;;
28245;SDS011;15510;52.512;13.300;2023-10-31T00:36:39;4.70;;;3.13;;
28245;SDS011;15510;52.512;13.300;2023-10-31T00:39:04;5.35;;;3.15;;
28245;SDS011;15510;52.512;13.300;2023-10-31T00:41:30;4.65;;;3.20;;
28245;SDS011;15510;52.512;13.300;2023-10-31T00:44:00;9.88;;;3.83;;
28245;SDS011;15510;52.512;13.300;2023-10-31T00:46:26;6.70;;;3.25;;
28245;SDS011;15510;52.512;13.300;2023-10-31T00:48:51;5.32;;;3.42;;
28245;SDS011;15510;52.512;13.300;2023-10-31T00:51:17;7.55;;;4.05;;
28245;SDS011;15510;52.512;13.300;2023-10-31T00:53:46;6.22;;;2.92;;
28245;SDS011;15510;52.512;13.300;2023-10-31T00:56:12;6.75;;;3.10;;
28245;SDS011;15510;52.512;13.300;2023-10-31T00:58:38;7.40;;;3.22;;
28245;SDS011;15510;52.512;13.300;2023-10-31T01:01:06;6.30;;;3.35;;
28245;SDS011;15510;52.512;13.300;2023-10-31T01:03:32;4.25;;;3.10;;
28245;SDS011;15510;52.512;13.300;2023-10-31T01:05:58;12.05;;;4.57;;
28245;SDS011;15510;52.512;13.300;2023-10-31T01:08:26;5.03;;;3.22;;
28245;SDS011;15510;52.512;13.300;2023-10-31T01:10:52;4.40;;;3.03;;
28245;SDS011;15510;52.512;13.300;2023-10-31T01:13:18;8.23;;;3.72;;
28245;SDS011;15510;52.512;13.300;2023-10-31T01:15:44;6.43;;;3.00;;
28245;SDS011;15510;52.512;13.300;2023-10-31T01:18:10;10.52;;;4.05;;
28245;SDS011;15510;52.512;13.300;2023-10-31T01:20:37;10.38;;;3.97;;
28245;SDS011;15510;52.512;13.300;2023-10-31T01:23:03;4.63;;;3.47;;
28245;SDS011;15510;52.512;13.300;2023-10-31T01:25:30;4.32;;;3.22;;
28245;SDS011;15510;52.512;13.300;2023-10-31T01:27:58;6.57;;;3.72;;
28245;SDS011;15510;52.512;13.300;2023-10-31T01:30:24;5.18;;;3.50;;
28245;SDS011;15510;52.512;13.300;2023-10-31T01:32:50;5.93;;;3.83;;
28245;SDS011;15510;52.512;13.300;2023-10-31T01:35:23;9.60;;;4.05;;
28245;SDS011;15510;52.512;13.300;2023-10-31T01:37:49;8.98;;;4.10;;
28245;SDS011;15510;52.512;13.300;2023-10-31T01:40:17;7.00;;;3.53;;
28245;SDS011;15510;52.512;13.300;2023-10-31T01:42:43;7.30;;;4.07;;
28245;SDS011;15510;52.512;13.300;2023-10-31T01:45:18;4.72;;;4.13;;
28245;SDS011;15510;52.512;13.300;2023-10-31T01:47:49;7.55;;;4.05;;
28245;SDS011;15510;52.512;13.300;2023-10-31T01:50:16;10.13;;;4.03;;
28245;SDS011;15510;52.512;13.300;2023-10-31T01:52:43;5.53;;;3.80;;
28245;SDS011;15510;52.512;13.300;2023-10-31T01:55:09;8.30;;;4.07;;
28245;SDS011;15510;52.512;13.300;2023-10-31T01:57:36;6.55;;;3.88;;
28245;SDS011;15510;52.512;13.300;2023-10-31T02:00:08;7.05;;;3.78;;
28245;SDS011;15510;52.512;13.300;2023-10-31T02:02:37;7.05;;;4.10;;
28245;SDS011;15510;52.512;13.300;2023-10-31T02:05:09;8.60;;;3.50;;
28245;SDS011;15510;52.512;13.300;2023-10-31T02:07:35;4.18;;;3.45;;
28245;SDS011;15510;52.512;13.300;2023-10-31T02:10:01;8.10;;;4.30;;
28245;SDS011;15510;52.512;13.300;2023-10-31T02:12:39;7.47;;;3.88;;
28245;SDS011;15510;52.512;13.300;2023-10-31T02:15:09;6.07;;;4.00;;
28245;SDS011;15510;52.512;13.300;2023-10-31T02:17:39;4.90;;;3.42;;
28245;SDS011;15510;52.512;13.300;2023-10-31T02:20:06;12.00;;;4.68;;
28245;SDS011;15510;52.512;13.300;2023-10-31T02:22:32;5.85;;;4.15;;
28245;SDS011;15510;52.512;13.300;2023-10-31T02:24:58;5.35;;;3.53;;
28245;SDS011;15510;52.512;13.300;2023-10-31T02:27:26;7.85;;;4.18;;
28245;SDS011;15510;52.512;13.300;2023-10-31T02:29:55;6.85;;;4.40;;
28245;SDS011;15510;52.512;13.300;2023-10-31T02:32:20;8.95;;;4.13;;
28245;SDS011;15510;52.512;13.300;2023-10-31T02:34:49;5.32;;;4.10;;
28245;SDS011;15510;52.512;13.300;2023-10-31T02:37:20;12.20;;;4.68;;
28245;SDS011;15510;52.512;13.300;2023-10-31T02:39:51;8.65;;;4.47;;
28245;SDS011;15510;52.512;13.300;2023-10-31T02:42:20;7.38;;;3.95;;
28245;SDS011;15510;52.512;13.300;2023-10-31T02:44:51;7.63;;;4.72;;
28245;SDS011;15510;52.512;13.300;2023-10-31T02:47:23;9.80;;;3.78;;
28245;SDS011;15510;52.512;13.300;2023-10-31T02:49:51;6.80;;;4.95;;
28245;SDS011;15510;52.512;13.300;2023-10-31T02:52:21;11.10;;;4.20;;
28245;SDS011;15510;52.512;13.300;2023-10-31T02:54:46;5.65;;;4.07;;
28245;SDS011;15510;52.512;13.300;2023-10-31T02:57:13;5.93;;;3.83;;
28245;SDS011;15510;52.512;13.300;2023-10-31T02:59:39;7.78;;;4.32;;
28245;SDS011;15510;52.512;13.300;2023-10-31T03:02:05;6.82;;;4.25;;
28245;SDS011;15510;52.512;13.300;2023-10-31T03:04:31;6.15;;;4.32;;
28245;SDS011;15510;52.512;13.300;2023-10-31T03:06:57;6.53;;;4.00;;
28245;SDS011;15510;52.512;13.300;2023-10-31T03:09:25;6.50;;;4.25;;
28245;SDS011;15510;52.512;13.300;2023-10-31T03:11:54;5.50;;;3.88;;
28245;SDS011;15510;52.512;13.300;2023-10-31T03:14:20;6.68;;;4.05;;
28245;SDS011;15510;52.512;13.300;2023-10-31T03:16:50;7.43;;;4.45;;
28245;SDS011;15510;52.512;13.300;2023-10-31T03:19:16;6.40;;;4.22;;
28245;SDS011;15510;52.512;13.300;2023-10-31T03:21:42;5.70;;;4.05;;
28245;SDS011;15510;52.512;13.300;2023-10-31T03:24:08;5.88;;;4.20;;
28245;SDS011;15510;52.512;13.300;2023-10-31T03:26:36;6.90;;;3.97;;
28245;SDS011;15510;52.512;13.300;2023-10-31T03:29:02;5.72;;;4.00;;
28245;SDS011;15510;52.512;13.300;2023-10-31T03:31:28;7.63;;;4.22;;
28245;SDS011;15510;52.512;13.300;2023-10-31T03:34:00;5.43;;;3.88;;
28245;SDS011;15510;52.512;13.300;2023-10-31T03:36:28;8.48;;;4.38;;
28245;SDS011;15510;52.512;13.300;2023-10-31T03:38:57;5.22;;;4.28;;
28245;SDS011;15510;52.512;13.300;2023-10-31T03:41:24;9.40;;;3.90;;
28245;SDS011;15510;52.512;13.300;2023-10-31T03:43:55;4.53;;;3.58;;
28245;SDS011;15510;52.512;13.300;2023-10-31T03:46:21;4.90;;;3.75;;
28245;SDS011;15510;52.512;13.300;2023-10-31T03:48:49;9.25;;;4.95;;
28245;SDS011;15510;52.512;13.300;2023-10-31T03:51:15;5.97;;;3.92;;
28245;SDS011;15510;52.512;13.300;2023-10-31T03:53:43;9.43;;;4.47;;
28245;SDS011;15510;52.512;13.300;2023-10-31T03:56:12;9.05;;;3.83;;
28245;SDS011;15510;52.512;13.300;2023-10-31T03:58:39;10.00;;;3.80;;
28245;SDS011;15510;52.512;13.300;2023-10-31T04:01:06;11.02;;;4.72;;
28245;SDS011;15510;52.512;13.300;2023-10-31T04:03:37;6.75;;;4.47;;
28245;SDS011;15510;52.512;13.300;2023-10-31T04:06:03;6.80;;;4.68;;
28245;SDS011;15510;52.512;13.300;2023-10-31T04:08:29;5.68;;;3.90;;
28245;SDS011;15510;52.512;13.300;2023-10-31T04:10:55;7.47;;;4.28;;
28245;SDS011;15510;52.512;13.300;2023-10-31T04:13:21;8.75;;;4.50;;
28245;SDS011;15510;52.512;13.300;2023-10-31T04:15:46;5.68;;;3.90;;
28245;SDS011;15510;52.512;13.300;2023-10-31T04:18:12;5.32;;;3.85;;
28245;SDS011;15510;52.512;13.300;2023-10-31T04:20:41;7.88;;;4.32;;
28245;SDS011;15510;52.512;13.300;2023-10-31T04:23:07;8.98;;;4.82;;
28245;SDS011;15510;52.512;13.300;2023-10-31T04:25:33;7.20;;;4.40;;
28245;SDS011;15510;52.512;13.300;2023-10-31T04:28:02;6.60;;;4.90;;
28245;SDS011;15510;52.512;13.300;2023-10-31T04:30:28;5.70;;;4.53;;
28245;SDS011;15510;52.512;13.300;2023-10-31T04:32:57;10.95;;;7.20;;
28245;SDS011;15510;52.512;13.300;2023-10-31T04:35:22;8.85;;;5.95;;
28245;SDS011;15510;52.512;13.300;2023-10-31T04:37:48;7.85;;;5.70;;
28245;SDS011;15510;52.512;13.300;2023-10-31T04:40:17;6.57;;;4.60;;
28245;SDS011;15510;52.512;13.300;2023-10-31T04:42:45;6.75;;;5.18;;
28245;SDS011;15510;52.512;13.300;2023-10-31T04:45:12;7.65;;;5.40;;
28245;SDS011;15510;52.512;13.300;2023-10-31T04:47:37;6.93;;;5.20;;
28245;SDS011;15510;52.512;13.300;2023-10-31T04:50:06;6.38;;;5.47;;
28245;SDS011;15510;52.512;13.300;2023-10-31T04:52:32;9.05;;;5.57;;
28245;SDS011;15510;52.512;13.300;2023-10-31T04:55:00;6.38;;;5.05;;
28245;SDS011;15510;52.512;13.300;2023-10-31T04:57:27;8.13;;;5.03;;
28245;SDS011;15510;52.512;13.300;2023-10-31T04:59:52;10.88;;;6.07;;
28245;SDS011;15510;52.512;13.300;2023-10-31T05:02:23;10.95;;;6.25;;
28245;SDS011;15510;52.512;13.300;2023-10-31T05:04:54;7.75;;;5.70;;
28245;SDS011;15510;52.512;13.300;2023-10-31T05:07:20;8.80;;;5.72;;
28245;SDS011;15510;52.512;13.300;2023-10-31T05:09:46;7.78;;;5.93;;
28245;SDS011;15510;52.512;13.300;2023-10-31T05:12:14;8.02;;;5.80;;
28245;SDS011;15510;52.512;13.300;2023-10-31T05:14:40;7.50;;;5.13;;
28245;SDS011;15510;52.512;13.300;2023-10-31T05:17:06;6.15;;;5.35;;
28245;SDS011;15510;52.512;13.300;2023-10-31T05:19:32;6.72;;;5.55;;
28245;SDS011;15510;52.512;13.300;2023-10-31T05:21:58;5.00;;;4.50;;
28245;SDS011;15510;52.512;13.300;2023-10-31T05:24:23;5.93;;;4.63;;
28245;SDS011;15510;52.512;13.300;2023-10-31T05:26:49;5.50;;;5.00;;
28245;SDS011;15510;52.512;13.300;2023-10-31T05:29:15;4.57;;;3.97;;
28245;SDS011;15510;52.512;13.300;2023-10-31T05:31:44;4.88;;;4.35;;
28245;SDS011;15510;52.512;13.300;2023-10-31T05:34:12;5.00;;;4.22;;
28245;SDS011;15510;52.512;13.300;2023-10-31T05:36:41;4.95;;;3.80;;
28245;SDS011;15510;52.512;13.300;2023-10-31T05:39:12;3.95;;;3.65;;
28245;SDS011;15510;52.512;13.300;2023-10-31T05:41:38;4.15;;;3.75;;
28245;SDS011;15510;52.512;13.300;2023-10-31T05:44:04;3.70;;;3.40;;
28245;SDS011;15510;52.512;13.300;2023-10-31T05:46:37;4.25;;;3.80;;
28245;SDS011;15510;52.512;13.300;2023-10-31T05:49:06;5.63;;;3.47;;
28245;SDS011;15510;52.512;13.300;2023-10-31T05:51:32;3.50;;;3.20;;
28245;SDS011;15510;52.512;13.300;2023-10-31T05:54:00;3.47;;;2.92;;
28245;SDS011;15510;52.512;13.300;2023-10-31T05:56:29;5.10;;;3.70;;
28245;SDS011;15510;52.512;13.300;2023-10-31T05:59:04;4.97;;;4.10;;
28245;SDS011;15510;52.512;13.300;2023-10-31T06:01:29;8.15;;;4.80;;
28245;SDS011;15510;52.512;13.300;2023-10-31T06:03:55;5.65;;;3.63;;
28245;SDS011;15510;52.512;13.300;2023-10-31T06:06:21;5.57;;;4.00;;
28245;SDS011;15510;52.512;13.300;2023-10-31T06:08:47;5.85;;;4.43;;
28245;SDS011;15510;52.512;13.300;2023-10-31T06:11:13;5.57;;;4.75;;
28245;SDS011;15510;52.512;13.300;2023-10-31T06:13:39;6.18;;;5.30;;
28245;SDS011;15510;52.512;13.300;2023-10-31T06:16:07;5.88;;;4.78;;
28245;SDS011;15510;52.512;13.300;2023-10-31T06:18:36;6.35;;;5.10;;
28245;SDS011;15510;52.512;13.300;2023-10-31T06:21:06;4.93;;;4.40;;
28245;SDS011;15510;52.512;13.300;2023-10-31T06:23:34;6.47;;;5.47;;
28245;SDS011;15510;52.512;13.300;2023-10-31T06:26:01;8.35;;;5.65;;
28245;SDS011;15510;52.512;13.300;2023-10-31T06:28:27;5.63;;;5.05;;
28245;SDS011;15510;52.512;13.300;2023-10-31T06:30:53;5.82;;;5.18;;
28245;SDS011;15510;52.512;13.300;2023-10-31T06:33:18;7.50;;;4.35;;
28245;SDS011;15510;52.512;13.300;2023-10-31T06:35:48;5.20;;;4.65;;
28245;SDS011;15510;52.512;13.300;2023-10-31T06:38:14;4.50;;;3.65;;
28245;SDS011;15510;52.512;13.300;2023-10-31T06:40:43;5.32;;;4.30;;
28245;SDS011;15510;52.512;13.300;2023-10-31T06:43:08;5.38;;;3.90;;
28245;SDS011;15510;52.512;13.300;2023-10-31T06:45:34;3.80;;;3.38;;
28245;SDS011;15510;52.512;13.300;2023-10-31T06:48:00;4.20;;;3.42;;
28245;SDS011;15510;52.512;13.300;2023-10-31T06:50:26;4.35;;;3.63;;
28245;SDS011;15510;52.512;13.300;2023-10-31T06:52:52;8.32;;;5.15;;
28245;SDS011;15510;52.512;13.300;2023-10-31T06:55:18;4.97;;;2.65;;
28245;SDS011;15510;52.512;13.300;2023-10-31T06:57:44;3.75;;;3.35;;
28245;SDS011;15510;52.512;13.300;2023-10-31T07:00:10;4.05;;;3.20;;
28245;SDS011;15510;52.512;13.300;2023-10-31T07:02:37;3.90;;;3.03;;
28245;SDS011;15510;52.512;13.300;2023-10-31T07:05:03;4.90;;;3.60;;
28245;SDS011;15510;52.512;13.300;2023-10-31T07:07:29;3.17;;;2.35;;
28245;SDS011;15510;52.512;13.300;2023-10-31T07:09:55;2.78;;;2.58;;
28245;SDS011;15510;52.512;13.300;2023-10-31T07:12:21;2.58;;;2.38;;
28245;SDS011;15510;52.512;13.300;2023-10-31T07:14:46;5.05;;;2.67;;
28245;SDS011;15510;52.512;13.300;2023-10-31T07:17:12;3.28;;;1.73;;
28245;SDS011;15510;52.512;13.300;2023-10-31T07:19:38;2.05;;;1.85;;
28245;SDS011;15510;52.512;13.300;2023-10-31T07:22:04;3.00;;;1.90;;
28245;SDS011;15510;52.512;13.300;2023-10-31T07:24:30;2.25;;;1.92;;
28245;SDS011;15510;52.512;13.300;2023-10-31T07:26:56;1.45;;;1.35;;
28245;SDS011;15510;52.512;13.300;2023-10-31T07:29:21;2.25;;;1.58;;
28245;SDS011;15510;52.512;13.300;2023-10-31T07:31:49;1.58;;;1.20;;
28245;SDS011;15510;52.512;13.300;2023-10-31T07:34:15;3.10;;;1.42;;
28245;SDS011;15510;52.512;13.300;2023-10-31T07:36:44;1.30;;;1.20;;
28245;SDS011;15510;52.512;13.300;2023-10-31T07:39:10;1.35;;;1.25;;
28245;SDS011;15510;52.512;13.300;2023-10-31T07:41:37;1.08;;;0.93;;
28245;SDS011;15510;52.512;13.300;2023-10-31T07:44:03;3.75;;;1.30;;
28245;SDS011;15510;52.512;13.300;2023-10-31T07:46:29;2.28;;;0.90;;
28245;SDS011;15510;52.512;13.300;2023-10-31T07:48:55;1.30;;;1.20;;
28245;SDS011;15510;52.512;13.300;2023-10-31T07:51:21;1.30;;;1.20;;
28245;SDS011;15510;52.512;13.300;2023-10-31T07:53:46;0.85;;;0.85;;
28245;SDS011;15510;52.512;13.300;2023-10-31T07:56:15;1.20;;;1.08;;
28245;SDS011;15510;52.512;13.300;2023-10-31T07:58:42;1.65;;;0.95;;
28245;SDS011;15510;52.512;13.300;2023-10-31T08:01:08;1.45;;;0.80;;
28245;SDS011;15510;52.512;13.300;2023-10-31T08:03:38;1.02;;;0.70;;
28245;SDS011;15510;52.512;13.300;2023-10-31T08:06:05;0.82;;;0.73;;
28245;SDS011;15510;52.512;13.300;2023-10-31T08:08:32;3.17;;;0.90;;
28245;SDS011;15510;52.512;13.300;2023-10-31T08:10:58;1.10;;;0.80;;
28245;SDS011;15510;52.512;13.300;2023-10-31T08:13:24;0.63;;;0.52;;
28245;SDS011;15510;52.512;13.300;2023-10-31T08:15:50;0.40;;;0.40;;
28245;SDS011;15510;52.512;13.300;2023-10-31T08:18:16;0.40;;;0.40;;
28245;SDS011;15510;52.512;13.300;2023-10-31T08:20:42;0.73;;;0.50;;
28245;SDS011;15510;52.512;13.300;2023-10-31T08:23:11;0.95;;;0.50;;
28245;SDS011;15510;52.512;13.300;2023-10-31T08:25:37;0.40;;;0.40;;
28245;SDS011;15510;52.512;13.300;2023-10-31T08:28:02;0.68;;;0.60;;
28245;SDS011;15510;52.512;13.300;2023-10-31T08:30:28;0.63;;;0.60;;
28245;SDS011;15510;52.512;13.300;2023-10-31T08:32:55;0.50;;;0.47;;
28245;SDS011;15510;52.512;13.300;2023-10-31T08:35:21;2.00;;;0.50;;
28245;SDS011;15510;52.512;13.300;2023-10-31T08:37:47;0.30;;;0.30;;
28245;SDS011;15510;52.512;13.300;2023-10-31T08:40:12;4.88;;;0.50;;
28245;SDS011;15510;52.512;13.300;2023-10-31T08:42:38;0.55;;;0.40;;
28245;SDS011;15510;52.512;13.300;2023-10-31T08:45:04;2.15;;;0.40;;
28245;SDS011;15510;52.512;13.300;2023-10-31T08:47:30;0.63;;;0.30;;
28245;SDS011;15510;52.512;13.300;2023-10-31T08:49:56;0.95;;;0.30;;
28245;SDS011;15510;52.512;13.300;2023-10-31T08:52:22;0.30;;;0.30;;
28245;SDS011;15510;52.512;13.300;2023-10-31T08:54:47;0.35;;;0.30;;
28245;SDS011;15510;52.512;13.300;2023-10-31T08:57:13;2.47;;;0.63;;
28245;SDS011;15510;52.512;13.300;2023-10-31T08:59:39;0.45;;;0.28;;
28245;SDS011;15510;52.512;13.300;2023-10-31T09:02:06;0.40;;;0.38;;
28245;SDS011;15510;52.512;13.300;2023-10-31T09:04:31;0.85;;;0.50;;
28245;SDS011;15510;52.512;13.300;2023-10-31T09:06:57;0.20;;;0.20;;
28245;SDS011;15510;52.512;13.300;2023-10-31T09:09:25;0.57;;;0.30;;
28245;SDS011;15510;52.512;13.300;2023-10-31T09:11:54;0.30;;;0.30;;
28245;SDS011;15510;52.512;13.300;2023-10-31T09:14:22;3.42;;;0.40;;
28245;SDS011;15510;52.512;13.300;2023-10-31T09:16:48;0.25;;;0.20;;
28245;SDS011;15510;52.512;13.300;2023-10-31T09:19:14;1.00;;;0.30;;
28245;SDS011;15510;52.512;13.300;2023-10-31T09:21:39;0.75;;;0.30;;
28245;SDS011;15510;52.512;13.300;2023-10-31T09:24:06;0.20;;;0.20;;
28245;SDS011;15510;52.512;13.300;2023-10-31T09:26:33;1.27;;;0.20;;
28245;SDS011;15510;52.512;13.300;2023-10-31T09:28:58;1.63;;;0.30;;
28245;SDS011;15510;52.512;13.300;2023-10-31T09:31:24;0.40;;;0.20;;
28245;SDS011;15510;52.512;13.300;2023-10-31T09:33:50;0.50;;;0.40;;
28245;SDS011;15510;52.512;13.300;2023-10-31T09:36:16;0.50;;;0.30;;
28245;SDS011;15510;52.512;13.300;2023-10-31T09:38:42;4.57;;;0.47;;
28245;SDS011;15510;52.512;13.300;2023-10-31T09:41:08;0.28;;;0.28;;
28245;SDS011;15510;52.512;13.300;2023-10-31T09:43:43;1.27;;;0.30;;
28245;SDS011;15510;52.512;13.300;2023-10-31T09:46:09;0.40;;;0.40;;
28245;SDS011;15510;52.512;13.300;2023-10-31T09:48:35;0.30;;;0.30;;
28245;SDS011;15510;52.512;13.300;2023-10-31T09:51:01;1.02;;;0.77;;
28245;SDS011;15510;52.512;13.300;2023-10-31T09:53:27;3.28;;;0.40;;
28245;SDS011;15510;52.512;13.300;2023-10-31T09:55:57;0.52;;;0.40;;
28245;SDS011;15510;52.512;13.300;2023-10-31T09:58:23;1.05;;;0.60;;
28245;SDS011;15510;52.512;13.300;2023-10-31T10:00:48;1.15;;;0.70;;
28245;SDS011;15510;52.512;13.300;2023-10-31T10:03:14;1.08;;;0.50;;
28245;SDS011;15510;52.512;13.300;2023-10-31T10:05:41;1.40;;;0.40;;
28245;SDS011;15510;52.512;13.300;2023-10-31T10:08:10;0.88;;;0.60;;
28245;SDS011;15510;52.512;13.300;2023-10-31T10:10:35;1.35;;;0.50;;
28245;SDS011;15510;52.512;13.300;2023-10-31T10:13:02;2.15;;;0.35;;
28245;SDS011;15510;52.512;13.300;2023-10-31T10:15:30;0.93;;;0.50;;
28245;SDS011;15510;52.512;13.300;2023-10-31T10:18:09;1.95;;;1.40;;
28245;SDS011;15510;52.512;13.300;2023-10-31T10:20:34;0.98;;;0.60;;
28245;SDS011;15510;52.512;13.300;2023-10-31T10:23:03;1.00;;;0.60;;
28245;SDS011;15510;52.512;13.300;2023-10-31T10:25:29;0.75;;;0.70;;
28245;SDS011;15510;52.512;13.300;2023-10-31T10:27:55;1.45;;;1.02;;
28245;SDS011;15510;52.512;13.300;2023-10-31T10:30:22;1.30;;;1.00;;
28245;SDS011;15510;52.512;13.300;2023-10-31T10:32:49;1.15;;;0.70;;
28245;SDS011;15510;52.512;13.300;2023-10-31T10:35:16;0.98;;;0.88;;
28245;SDS011;15510;52.512;13.300;2023-10-31T10:37:42;1.67;;;0.68;;
28245;SDS011;15510;52.512;13.300;2023-10-31T10:40:10;0.75;;;0.70;;
28245;SDS011;15510;52.512;13.300;2023-10-31T10:42:41;0.70;;;0.70;;
28245;SDS011;15510;52.512;13.300;2023-10-31T10:45:10;1.15;;;0.65;;
28245;SDS011;15510;52.512;13.300;2023-10-31T10:47:39;1.40;;;0.90;;
28245;SDS011;15510;52.512;13.300;2023-10-31T10:50:05;1.10;;;0.90;;
28245;SDS011;15510;52.512;13.300;2023-10-31T10:55:08;0.77;;;0.77;;
28245;SDS011;15510;52.512;13.300;2023-10-31T10:57:39;1.10;;;0.80;;
28245;SDS011;15510;52.512;13.300;2023-10-31T11:00:13;1.63;;;0.80;;
28245;SDS011;15510;52.512;13.300;2023-10-31T11:02:40;2.10;;;0.93;;
28245;SDS011;15510;52.512;13.300;2023-10-31T11:05:08;0.75;;;0.75;;
28245;SDS011;15510;52.512;13.300;2023-10-31T11:07:37;1.20;;;0.70;;
28245;SDS011;15510;52.512;13.300;2023-10-31T11:10:06;1.85;;;0.70;;
28245;SDS011;15510;52.512;13.300;2023-10-31T11:12:33;1.27;;;1.15;;
28245;SDS011;15510;52.512;13.300;2023-10-31T11:14:59;1.40;;;1.20;;
28245;SDS011;15510;52.512;13.300;2023-10-31T11:17:47;1.42;;;1.33;;
28245;SDS011;15510;52.512;13.300;2023-10-31T11:20:14;2.33;;;1.92;;
28245;SDS011;15510;52.512;13.300;2023-10-31T11:22:41;2.70;;;2.50;;
28245;SDS011;15510;52.512;13.300;2023-10-31T11:25:14;1.85;;;1.58;;
28245;SDS011;15510;52.512;13.300;2023-10-31T11:27:45;4.80;;;1.25;;
28245;SDS011;15510;52.512;13.300;2023-10-31T11:30:20;2.00;;;1.00;;
28245;SDS011;15510;52.512;13.300;2023-10-31T11:32:52;1.35;;;1.23;;
28245;SDS011;15510;52.512;13.300;2023-10-31T11:35:18;1.33;;;1.08;;
28245;SDS011;15510;52.512;13.300;2023-10-31T11:37:47;1.77;;;1.00;;
28245;SDS011;15510;52.512;13.300;2023-10-31T11:42:47;2.38;;;1.08;;
28245;SDS011;15510;52.512;13.300;2023-10-31T11:45:30;0.77;;;0.77;;
28245;SDS011;15510;52.512;13.300;2023-10-31T11:48:02;0.82;;;0.82;;
28245;SDS011;15510;52.512;13.300;2023-10-31T11:50:30;3.97;;;1.20;;
28245;SDS011;15510;52.512;13.300;2023-10-31T11:53:30;1.20;;;1.10;;
28245;SDS011;15510;52.512;13.300;2023-10-31T11:55:49;1.05;;;0.95;;
28245;SDS011;15510;52.512;13.300;2023-10-31T11:58:22;1.92;;;1.35;;
28245;SDS011;15510;52.512;13.300;2023-10-31T12:01:05;2.75;;;0.90;;
28245;SDS011;15510;52.512;13.300;2023-10-31T12:03:39;1.38;;;1.08;;
28245;SDS011;15510;52.512;13.300;2023-10-31T12:06:13;1.10;;;1.00;;
28245;SDS011;15510;52.512;13.300;2023-10-31T12:08:41;0.80;;;0.70;;
28245;SDS011;15510;52.512;13.300;2023-10-31T12:13:39;0.80;;;0.65;;
28245;SDS011;15510;52.512;13.300;2023-10-31T12:16:19;0.77;;;0.57;;
28245;SDS011;15510;52.512;13.300;2023-10-31T12:18:58;0.45;;;0.45;;
28245;SDS011;15510;52.512;13.300;2023-10-31T12:21:41;0.75;;;0.50;;
28245;SDS011;15510;52.512;13.300;2023-10-31T12:24:16;1.17;;;0.60;;
28245;SDS011;15510;52.512;13.300;2023-10-31T12:26:44;0.82;;;0.82;;
28245;SDS011;15510;52.512;13.300;2023-10-31T12:29:18;0.85;;;0.80;;
28245;SDS011;15510;52.512;13.300;2023-10-31T12:31:49;0.80;;;0.70;;
28245;SDS011;15510;52.512;13.300;2023-10-31T12:34:18;3.75;;;1.90;;
28245;SDS011;15510;52.512;13.300;2023-10-31T12:36:46;3.17;;;1.00;;
28245;SDS011;15510;52.512;13.300;2023-10-31T12:39:13;1.65;;;0.73;;
28245;SDS011;15510;52.512;13.300;2023-10-31T12:41:41;2.97;;;0.70;;
28245;SDS011;15510;52.512;13.300;2023-10-31T12:44:08;1.00;;;0.50;;
28245;SDS011;15510;52.512;13.300;2023-10-31T12:46:38;0.30;;;0.30;;
28245;SDS011;15510;52.512;13.300;2023-10-31T12:49:10;3.78;;;1.40;;
28245;SDS011;15510;52.512;13.300;2023-10-31T12:51:55;0.50;;;0.50;;
28245;SDS011;15510;52.512;13.300;2023-10-31T12:54:30;0.60;;;0.60;;
28245;SDS011;15510;52.512;13.300;2023-10-31T12:57:01;2.95;;;0.70;;
28245;SDS011;15510;52.512;13.300;2023-10-31T12:59:29;1.15;;;0.60;;
28245;SDS011;15510;52.512;13.300;2023-10-31T13:01:59;0.88;;;0.80;;
28245;SDS011;15510;52.512;13.300;2023-10-31T13:04:29;0.43;;;0.40;;
28245;SDS011;15510;52.512;13.300;2023-10-31T13:07:04;1.95;;;0.40;;
28245;SDS011;15510;52.512;13.300;2023-10-31T13:09:39;0.40;;;0.40;;
28245;SDS011;15510;52.512;13.300;2023-10-31T13:12:07;1.00;;;0.90;;
28245;SDS011;15510;52.512;13.300;2023-10-31T13:14:36;1.30;;;1.20;;
28245;SDS011;15510;52.512;13.300;2023-10-31T13:17:03;1.55;;;1.30;;
28245;SDS011;15510;52.512;13.300;2023-10-31T13:19:29;1.10;;;1.00;;
28245;SDS011;15510;52.512;13.300;2023-10-31T13:21:54;3.80;;;1.23;;
28245;SDS011;15510;52.512;13.300;2023-10-31T13:24:23;0.80;;;0.80;;
28245;SDS011;15510;52.512;13.300;2023-10-31T13:26:49;0.57;;;0.40;;
28245;SDS011;15510;52.512;13.300;2023-10-31T13:29:17;0.68;;;0.60;;
28245;SDS011;15510;52.512;13.300;2023-10-31T13:31:43;1.25;;;0.80;;
28245;SDS011;15510;52.512;13.300;2023-10-31T13:34:09;0.70;;;0.70;;
28245;SDS011;15510;52.512;13.300;2023-10-31T13:36:38;1.20;;;1.10;;
28245;SDS011;15510;52.512;13.300;2023-10-31T13:39:03;1.77;;;0.65;;
28245;SDS011;15510;52.512;13.300;2023-10-31T13:41:32;1.67;;;0.60;;
28245;SDS011;15510;52.512;13.300;2023-10-31T13:43:58;1.13;;;0.45;;
28245;SDS011;15510;52.512;13.300;2023-10-31T13:46:24;0.25;;;0.25;;
28245;SDS011;15510;52.512;13.300;2023-10-31T13:48:50;1.52;;;1.00;;
28245;SDS011;15510;52.512;13.300;2023-10-31T13:51:15;1.30;;;1.20;;
28245;SDS011;15510;52.512;13.300;2023-10-31T13:53:42;4.03;;;0.75;;
28245;SDS011;15510;52.512;13.300;2023-10-31T13:56:09;0.80;;;0.80;;
28245;SDS011;15510;52.512;13.300;2023-10-31T13:58:34;0.93;;;0.80;;
28245;SDS011;15510;52.512;13.300;2023-10-31T14:01:01;0.68;;;0.68;;
28245;SDS011;15510;52.512;13.300;2023-10-31T14:03:26;1.48;;;0.60;;
28245;SDS011;15510;52.512;13.300;2023-10-31T14:05:52;0.57;;;0.35;;
28245;SDS011;15510;52.512;13.300;2023-10-31T14:08:18;0.55;;;0.47;;
28245;SDS011;15510;52.512;13.300;2023-10-31T14:10:44;0.45;;;0.30;;
28245;SDS011;15510;52.512;13.300;2023-10-31T14:13:11;0.93;;;0.50;;
28245;SDS011;15510;52.512;13.300;2023-10-31T14:15:37;0.50;;;0.30;;
28245;SDS011;15510;52.512;13.300;2023-10-31T14:18:03;1.30;;;0.80;;
28245;SDS011;15510;52.512;13.300;2023-10-31T14:20:29;1.30;;;0.93;;
28245;SDS011;15510;52.512;13.300;2023-10-31T14:22:55;1.83;;;1.35;;
28245;SDS011;15510;52.512;13.300;2023-10-31T14:25:20;1.42;;;1.00;;
28245;SDS011;15510;52.512;13.300;2023-10-31T14:27:49;2.05;;;1.25;;
28245;SDS011;15510;52.512;13.300;2023-10-31T14:30:16;0.88;;;0.88;;
28245;SDS011;15510;52.512;13.300;2023-10-31T14:32:44;1.02;;;0.70;;
28245;SDS011;15510;52.512;13.300;2023-10-31T14:35:10;1.98;;;0.80;;
28245;SDS011;15510;52.512;13.300;2023-10-31T14:37:35;1.13;;;1.02;;
28245;SDS011;15510;52.512;13.300;2023-10-31T14:40:01;1.25;;;1.15;;
28245;SDS011;15510;52.512;13.300;2023-10-31T14:42:31;1.85;;;1.50;;
28245;SDS011;15510;52.512;13.300;2023-10-31T14:44:57;2.53;;;1.80;;